»·PEaware :: UAL115 KVCV-KPHX

UAL115 :: KVCV-KPHX

FLIGHT INFORMATION

Flight Status: Arrived
Operator:
United Airlines
More flights by this operator :: More flights under this callsign
Pilot: Anonymous 30051 (30051)
Aircraft: BOEING 737-200
(B732)
More flights by this aircraft type
Origin: KVCV Socal Logistics
United States
Destination: KPHX Phoenix Sky Harbor Intl
United States
More flights between these airports :: More routes between these airports
Route: HEC J6 EED J6 DRK COYOT5
File this flight plan on PilotEdge
Remarks:
Altitude:
(Current/Filed)
29,000ft
Speed:
(Current/Filed)
410kts
Departed: 07-Sep-20 12:13 PM
Arrived: 07-Sep-20 01:14 PM
Distance/Time
Traveled:
277nm/1:00
Distance/Time
To Go:
Arrived

Flight Plot

Page will automatically refresh every two minutes.

Flight plan parsing failed; only flown route is shown


Map Options




Map Legend


Flown Route
Filed Route
Departure Airport
Arrival Airport
Navaid (VOR, NDB)
Fix

Horizontal Profiles

Position Reports

Time Latitude Longitude Heading Altitude Ground
Speed
07-Sep-20 11:45 34.584420 -117.381284 315 2881ft 0kts
07-Sep-20 11:49 34.584420 -117.381284 315 2881ft 0kts
07-Sep-20 11:50 34.584420 -117.381284 315 2881ft 0kts
07-Sep-20 11:51 34.584420 -117.381284 315 2881ft 0kts
07-Sep-20 11:52 34.584420 -117.381284 315 2881ft 0kts
07-Sep-20 11:53 34.584420 -117.381284 315 2881ft 0kts
07-Sep-20 11:54 34.584420 -117.381284 315 2881ft 0kts
07-Sep-20 11:55 34.584420 -117.381284 315 2881ft 0kts
07-Sep-20 11:56 34.584420 -117.381284 315 2881ft 0kts
07-Sep-20 11:57 34.584420 -117.381284 315 2881ft 0kts
07-Sep-20 11:58 34.584420 -117.381284 315 2881ft 0kts
07-Sep-20 11:59 34.584420 -117.381284 315 2881ft 0kts
07-Sep-20 12:00 34.584420 -117.381284 315 2881ft 0kts
07-Sep-20 12:01 34.584420 -117.381284 315 2881ft 0kts
07-Sep-20 12:02 34.584420 -117.381284 315 2881ft 0kts
07-Sep-20 12:03 34.584420 -117.381284 315 2881ft 0kts
07-Sep-20 12:04 34.584420 -117.381284 315 2881ft 0kts
07-Sep-20 12:05 34.584420 -117.381284 315 2881ft 0kts
07-Sep-20 12:06 34.584420 -117.381284 315 2881ft 0kts
07-Sep-20 12:07 34.584428 -117.381295 314 2881ft 1kts
07-Sep-20 12:08 34.587431 -117.379281 45 2878ft 19kts
07-Sep-20 12:09 34.591613 -117.374340 44 2870ft 22kts
07-Sep-20 12:10 34.593498 -117.367987 31 2862ft 13kts
07-Sep-20 12:11 34.598629 -117.366739 9 2850ft 19kts
07-Sep-20 12:12 34.597359 -117.370288 223 2856ft 81kts
07-Sep-20 12:13 34.575309 -117.418126 261 3918ft 214kts
07-Sep-20 12:14 34.565762 -117.499748 262 6163ft 276kts
07-Sep-20 12:15 34.555944 -117.594627 285 9567ft 287kts
07-Sep-20 12:16 34.617683 -117.621398 36 12566ft 293kts
07-Sep-20 12:17 34.651001 -117.522161 73 14483ft 342kts
07-Sep-20 12:18 34.674011 -117.407250 75 16890ft 356kts
07-Sep-20 12:19 34.692183 -117.287129 79 19010ft 369kts
07-Sep-20 12:20 34.705426 -117.161398 81 20911ft 380kts
07-Sep-20 12:21 34.719129 -117.032046 79 22389ft 394kts
07-Sep-20 12:22 34.737766 -116.898348 78 23547ft 410kts
07-Sep-20 12:23 34.757923 -116.760983 79 24783ft 417kts
07-Sep-20 12:24 34.776193 -116.620675 80 25922ft 424kts
07-Sep-20 12:25 34.794798 -116.477859 79 26959ft 430kts
07-Sep-20 12:26 34.799223 -116.442823 82 27190ft 431kts
07-Sep-20 12:30 34.782462 -115.720641 91 28984ft 488kts
07-Sep-20 12:31 34.779074 -115.556087 90 28892ft 483kts
07-Sep-20 12:32 34.776005 -115.393094 90 28793ft 481kts
07-Sep-20 12:33 34.776575 -115.231170 83 28808ft 478kts
07-Sep-20 12:34 34.785969 -115.070022 88 28808ft 479kts
07-Sep-20 12:35 34.780148 -114.907479 94 28808ft 483kts
07-Sep-20 12:36 34.771855 -114.744463 91 28808ft 486kts
07-Sep-20 12:37 34.768444 -114.579828 91 28808ft 488kts
07-Sep-20 12:38 34.764083 -114.414647 91 28802ft 490kts
07-Sep-20 12:39 34.756417 -114.248103 92 28781ft 491kts
07-Sep-20 12:40 34.750756 -114.082626 91 28808ft 491kts
07-Sep-20 12:41 34.745677 -113.916765 91 28871ft 488kts
07-Sep-20 12:42 34.740768 -113.753411 91 29004ft 482kts
07-Sep-20 12:43 34.735640 -113.590064 91 29001ft 486kts
07-Sep-20 12:44 34.730323 -113.424412 90 29001ft 492kts
07-Sep-20 12:45 34.729930 -113.266548 88 28249ft 442kts
07-Sep-20 12:46 34.731083 -113.119779 90 25957ft 430kts
07-Sep-20 12:47 34.725358 -112.977277 93 23834ft 416kts
07-Sep-20 12:48 34.716771 -112.839585 92 21738ft 403kts
07-Sep-20 12:50 34.711345 -112.705868 90 19671ft 390kts
07-Sep-20 12:51 34.706552 -112.576272 90 17655ft 378kts
07-Sep-20 12:52 34.698325 -112.451205 108 15667ft 371kts
07-Sep-20 12:53 34.628842 -112.360390 136 13961ft 368kts
07-Sep-20 12:54 34.552665 -112.279158 137 13316ft 361kts
07-Sep-20 12:55 34.475090 -112.203216 150 13311ft 363kts
07-Sep-20 12:56 34.375726 -112.173771 180 13311ft 372kts
07-Sep-20 12:57 34.277949 -112.178477 177 13304ft 336kts
07-Sep-20 12:58 34.186638 -112.170487 173 13237ft 331kts
07-Sep-20 12:59 34.096390 -112.152256 166 13086ft 327kts
07-Sep-20 13:00 34.009266 -112.123103 162 13060ft 320kts
07-Sep-20 13:01 33.930421 -112.094270 163 12880ft 277kts
07-Sep-20 13:02 33.856615 -112.072278 166 11651ft 273kts
07-Sep-20 13:03 33.785858 -112.075248 199 10841ft 237kts
07-Sep-20 13:03 33.736782 -112.094327 200 9620ft 213kts
07-Sep-20 13:05 33.676192 -112.116819 200 7330ft 171kts
07-Sep-20 13:06 33.632552 -112.132927 199 4595ft 163kts
07-Sep-20 13:07 33.593289 -112.148415 200 4018ft 134kts
07-Sep-20 13:07 33.563841 -112.156806 181 4102ft 148kts
07-Sep-20 13:08 33.520581 -112.148363 177 4013ft 146kts
07-Sep-20 13:10 33.474367 -112.142813 171 3780ft 151kts
07-Sep-20 13:11 33.443161 -112.110583 126 2444ft 146kts
07-Sep-20 13:11 33.430374 -112.075885 86 1777ft 141kts
07-Sep-20 13:12 33.431081 -112.029762 88 1190ft 133kts
07-Sep-20 13:13 33.431091 -112.004718 87 1126ft 10kts
07-Sep-20 13:14 33.432860 -112.002133 92 1127ft 17kts
07-Sep-20 13:15 33.433487 -111.999429 0 1126ft 0kts
07-Sep-20 13:16 33.433487 -111.999429 0 1126ft 0kts
07-Sep-20 13:17 33.433487 -111.999429 0 1126ft 0kts
07-Sep-20 13:18 33.433487 -111.999429 0 1126ft 0kts
07-Sep-20 13:19 33.433487 -111.999429 0 1126ft 0kts
07-Sep-20 13:20 33.433487 -111.999429 0 1126ft 0kts
07-Sep-20 13:21 33.433487 -111.999429 0 1126ft 0kts

Navigation Log

Ident Type
Flight plan parsing failed, navigation log unavailable